Time;durP1;ratioP1;P1;durP2;ratioP2;P2;SDS_P1;SDS_P2;PMS_P1;PMS_P2;Temp;Humidity;BMP_temperature;BMP_pressure;BME280_temperature;BME280_humidity;BME280_pressure;Samples;Min_cycle;Max_cycle;Signal;HPM_P1;HPM_P2
2021/05/10 00:01:07;;;;;;;3.80;1.97;;;13.50;99.90;;;;;;5068704;28;20220;-68
2021/05/10 00:03:34;;;;;;;2.97;2.27;;;13.50;99.90;;;;;;5072151;28;20280;-68
2021/05/10 00:06:01;;;;;;;2.23;1.90;;;13.50;99.90;;;;;;5065602;28;20652;-68
2021/05/10 00:08:28;;;;;;;2.57;1.93;;;13.50;99.90;;;;;;5071240;28;20475;-69
2021/05/10 00:10:55;;;;;;;3.37;2.20;;;13.40;99.90;;;;;;5073986;28;20662;-68
2021/05/10 00:13:25;;;;;;;2.53;1.93;;;13.40;99.90;;;;;;5072154;28;20189;-68
2021/05/10 00:15:51;;;;;;;2.50;2.00;;;13.40;99.90;;;;;;5070454;28;20299;-68
2021/05/10 00:18:18;;;;;;;2.50;2.10;;;13.40;99.90;;;;;;5071084;28;20280;-69
2021/05/10 00:20:47;;;;;;;1.90;1.80;;;13.30;99.90;;;;;;5068160;28;20692;-68
2021/05/10 00:23:16;;;;;;;2.40;1.90;;;13.30;99.90;;;;;;5060735;28;20238;-68
2021/05/10 00:25:44;;;;;;;1.97;1.87;;;13.30;99.90;;;;;;5078099;28;20197;-69
2021/05/10 00:28:10;;;;;;;2.63;2.00;;;13.30;99.90;;;;;;5071621;28;20662;-68
2021/05/10 00:30:37;;;;;;;2.63;1.90;;;13.30;99.90;;;;;;5069904;28;20197;-68
2021/05/10 00:33:05;;;;;;;2.73;2.00;;;13.20;99.90;;;;;;5068235;28;20301;-68
2021/05/10 00:35:31;;;;;;;2.73;2.20;;;13.20;99.90;;;;;;5068356;28;20231;-68
2021/05/10 00:37:58;;;;;;;2.53;2.00;;;13.20;99.90;;;;;;5071728;28;20194;-68
2021/05/10 00:40:28;;;;;;;2.90;2.17;;;13.10;99.90;;;;;;5070098;28;20787;-68
2021/05/10 00:42:55;;;;;;;2.60;2.23;;;13.10;99.90;;;;;;5067694;28;20206;-68
2021/05/10 00:45:23;;;;;;;2.57;2.20;;;13.10;99.90;;;;;;5069713;28;20197;-68
2021/05/10 00:47:49;;;;;;;2.40;2.00;;;13.10;99.90;;;;;;5071339;28;20197;-68
2021/05/10 00:50:17;;;;;;;2.77;2.10;;;13.00;99.90;;;;;;5071620;28;20282;-68
2021/05/10 00:52:44;;;;;;;2.93;2.10;;;13.00;99.90;;;;;;5069640;28;20237;-68
2021/05/10 00:55:12;;;;;;;2.63;1.90;;;13.00;99.90;;;;;;5068583;28;20764;-68
2021/05/10 00:57:44;;;;;;;2.30;2.10;;;12.70;99.90;;;;;;5071392;28;20194;-68
2021/05/10 01:00:13;;;;;;;2.27;2.07;;;13.00;99.90;;;;;;5067991;28;20281;-68
2021/05/10 01:02:41;;;;;;;1.80;1.70;;;12.90;99.90;;;;;;5066151;28;20311;-68
2021/05/10 01:05:09;;;;;;;3.40;1.83;;;12.90;99.90;;;;;;5070048;28;20190;-68
2021/05/10 01:07:36;;;;;;;2.17;1.80;;;12.90;99.90;;;;;;5068907;28;20189;-68
2021/05/10 01:10:07;;;;;;;3.53;2.17;;;12.90;99.90;;;;;;5070959;28;20292;-68
2021/05/10 01:12:33;;;;;;;2.67;2.17;;;12.90;99.90;;;;;;5068455;28;20205;-68
2021/05/10 01:15:01;;;;;;;2.73;2.20;;;12.80;99.90;;;;;;5068717;28;20206;-68
2021/05/10 01:17:27;;;;;;;3.10;2.07;;;12.80;99.90;;;;;;5068970;28;20223;-68
2021/05/10 01:19:54;;;;;;;2.20;2.00;;;12.80;99.90;;;;;;5060554;28;20546;-68
2021/05/10 01:22:22;;;;;;;2.33;2.13;;;12.80;99.90;;;;;;5068271;28;20185;-68
2021/05/10 01:24:50;;;;;;;2.97;2.43;;;12.80;99.90;;;;;;5065298;28;20775;-68
2021/05/10 01:27:16;;;;;;;2.13;2.00;;;12.70;99.90;;;;;;5072621;28;20193;-68
2021/05/10 01:29:43;;;;;;;2.93;1.93;;;12.70;99.90;;;;;;5069534;28;20528;-68
2021/05/10 01:32:09;;;;;;;2.93;2.30;;;12.70;99.90;;;;;;5064386;28;20232;-68
2021/05/10 01:34:36;;;;;;;2.30;2.10;;;12.60;99.90;;;;;;5070348;28;20209;-68
2021/05/10 01:37:02;;;;;;;3.37;2.60;;;12.60;99.90;;;;;;5068017;28;20200;-68
2021/05/10 01:39:29;;;;;;;3.97;2.87;;;12.50;99.90;;;;;;5069172;28;20204;-68
2021/05/10 01:41:56;;;;;;;4.57;2.37;;;12.60;99.90;;;;;;5065291;28;20197;-69
2021/05/10 01:44:24;;;;;;;2.60;2.20;;;12.50;99.90;;;;;;5069576;28;20589;-68
2021/05/10 01:46:50;;;;;;;2.17;1.97;;;12.50;99.90;;;;;;5068316;28;20190;-68
2021/05/10 01:49:17;;;;;;;2.80;2.50;;;12.50;99.90;;;;;;5066650;28;20312;-68
2021/05/10 01:51:43;;;;;;;4.43;2.50;;;12.50;99.90;;;;;;5071253;28;20351;-68
2021/05/10 01:54:10;;;;;;;3.20;2.47;;;12.40;99.90;;;;;;5066369;28;20628;-68
2021/05/10 01:56:36;;;;;;;4.40;2.77;;;12.40;99.90;;;;;;5061751;28;20747;-68
2021/05/10 01:59:04;;;;;;;3.97;2.60;;;12.40;99.90;;;;;;5065803;28;20203;-68
2021/05/10 02:01:32;;;;;;;2.23;2.03;;;12.40;99.90;;;;;;5064262;28;20195;-68
2021/05/10 02:04:00;;;;;;;2.33;2.07;;;12.30;99.90;;;;;;5069858;28;20257;-68
2021/05/10 02:06:27;;;;;;;2.77;2.33;;;12.30;99.90;;;;;;5065006;28;20197;-68
2021/05/10 02:08:54;;;;;;;2.37;2.17;;;12.30;99.90;;;;;;5064308;28;20267;-68
2021/05/10 02:11:21;;;;;;;2.23;2.03;;;12.30;99.90;;;;;;5071618;28;20205;-68
2021/05/10 02:13:47;;;;;;;2.70;2.30;;;12.30;99.90;;;;;;5067280;28;20208;-68
2021/05/10 02:16:15;;;;;;;3.17;2.20;;;12.20;99.90;;;;;;5067607;28;20216;-68
2021/05/10 02:18:41;;;;;;;3.93;3.03;;;12.30;99.90;;;;;;5069460;28;20205;-68
2021/05/10 02:21:08;;;;;;;3.83;2.87;;;12.20;99.90;;;;;;5069278;28;20280;-69
2021/05/10 02:23:36;;;;;;;3.80;2.67;;;12.20;99.90;;;;;;5069107;28;20240;-69
2021/05/10 02:26:04;;;;;;;6.33;2.80;;;12.20;99.90;;;;;;5072295;28;20310;-68
2021/05/10 02:28:32;;;;;;;3.27;2.60;;;12.20;99.90;;;;;;5067095;28;20324;-68
2021/05/10 02:31:00;;;;;;;3.83;2.80;;;12.10;99.90;;;;;;5068177;28;20233;-69
2021/05/10 02:33:29;;;;;;;3.73;3.00;;;12.10;99.90;;;;;;5065223;28;20216;-69
2021/05/10 02:35:57;;;;;;;3.83;2.87;;;12.00;99.90;;;;;;5067222;28;20704;-69
2021/05/10 02:38:24;;;;;;;4.07;3.20;;;12.00;99.90;;;;;;5068714;28;20359;-69
2021/05/10 02:40:52;;;;;;;3.10;2.80;;;12.00;99.90;;;;;;5067779;28;20238;-69
2021/05/10 02:43:20;;;;;;;3.17;2.80;;;12.00;99.90;;;;;;5067544;28;20443;-69
2021/05/10 02:45:47;;;;;;;2.63;2.23;;;12.00;99.90;;;;;;5066906;28;20230;-69
2021/05/10 02:48:14;;;;;;;2.57;2.30;;;12.00;99.90;;;;;;5068706;28;20200;-69
2021/05/10 02:50:41;;;;;;;2.97;2.10;;;11.90;99.90;;;;;;5071352;28;20204;-69
2021/05/10 02:53:08;;;;;;;2.03;1.90;;;11.90;99.90;;;;;;5068824;28;20196;-69
2021/05/10 02:55:35;;;;;;;2.10;1.80;;;11.90;99.90;;;;;;5068125;28;20324;-68
2021/05/10 02:58:01;;;;;;;2.63;2.20;;;11.90;99.90;;;;;;5069386;28;20282;-69
2021/05/10 03:00:29;;;;;;;3.10;2.30;;;11.90;99.90;;;;;;5067950;28;20223;-69
2021/05/10 03:02:56;;;;;;;2.47;2.20;;;11.90;99.90;;;;;;5068168;28;20199;-68
2021/05/10 03:05:24;;;;;;;2.43;2.23;;;11.90;99.90;;;;;;5069161;28;20204;-69
2021/05/10 03:07:52;;;;;;;2.33;2.13;;;11.80;99.90;;;;;;5068964;28;20284;-69
2021/05/10 03:10:21;;;;;;;2.43;2.00;;;11.80;99.90;;;;;;5069370;28;20238;-69
2021/05/10 03:12:48;;;;;;;3.00;2.20;;;11.80;99.90;;;;;;5066328;28;20251;-69
2021/05/10 03:15:17;;;;;;;2.50;2.07;;;11.80;99.90;;;;;;5067365;28;20248;-69
2021/05/10 03:17:44;;;;;;;3.03;2.50;;;11.80;99.90;;;;;;5068211;28;20251;-69
2021/05/10 03:20:13;;;;;;;3.37;2.47;;;11.80;99.90;;;;;;5068288;28;20194;-69
2021/05/10 03:22:40;;;;;;;3.43;2.50;;;11.80;99.90;;;;;;5068617;28;20223;-69
2021/05/10 03:25:09;;;;;;;3.27;2.37;;;11.80;99.90;;;;;;5075180;28;20207;-69
2021/05/10 03:27:40;;;;;;;3.23;2.50;;;11.70;99.90;;;;;;5071100;28;20223;-69
2021/05/10 03:30:10;;;;;;;2.37;2.17;;;11.70;99.90;;;;;;5071297;28;20204;-69
2021/05/10 03:32:37;;;;;;;3.17;2.20;;;11.70;99.90;;;;;;5070516;28;20286;-69
2021/05/10 03:35:05;;;;;;;3.83;2.60;;;11.70;99.90;;;;;;5068906;28;20217;-69
2021/05/10 03:37:31;;;;;;;4.80;2.77;;;11.70;99.90;;;;;;5070475;28;20643;-69
2021/05/10 03:39:58;;;;;;;3.33;2.67;;;11.70;99.90;;;;;;5070012;28;20298;-69
2021/05/10 03:42:26;;;;;;;2.50;2.30;;;11.70;99.90;;;;;;5072109;28;20223;-69
2021/05/10 03:44:53;;;;;;;3.90;2.50;;;11.70;99.90;;;;;;5065080;28;20690;-69
2021/05/10 03:47:20;;;;;;;3.50;2.50;;;11.70;99.90;;;;;;5069307;28;20201;-69
2021/05/10 03:49:47;;;;;;;2.57;2.30;;;11.70;99.90;;;;;;5070605;28;20269;-68
2021/05/10 03:52:13;;;;;;;3.93;2.60;;;11.80;99.90;;;;;;5074199;28;20224;-69
2021/05/10 03:54:40;;;;;;;2.60;2.40;;;11.80;99.90;;;;;;5071107;28;20280;-69
2021/05/10 03:57:07;;;;;;;2.53;2.33;;;11.80;99.90;;;;;;5068616;28;20278;-69
2021/05/10 03:59:34;;;;;;;2.93;2.57;;;11.80;99.90;;;;;;5071169;28;20195;-69
2021/05/10 04:02:02;;;;;;;3.10;2.50;;;11.80;99.90;;;;;;5069814;28;20233;-69
2021/05/10 04:04:36;;;;;;;2.87;2.57;;;11.80;99.90;;;;;;5065552;28;20209;-69
2021/05/10 04:07:18;;;;;;;3.67;2.73;;;11.80;99.90;;;;;;5066181;28;20591;-69
2021/05/10 04:10:02;;;;;;;2.20;2.00;;;11.80;99.90;;;;;;5068248;28;20667;-69
2021/05/10 04:15:14;;;;;;;2.97;2.43;;;11.90;99.90;;;;;;5062872;28;20219;-69
2021/05/10 04:17:41;;;;;;;4.47;2.90;;;11.90;99.90;;;;;;5070619;28;20216;-69
2021/05/10 04:20:09;;;;;;;3.43;2.67;;;12.00;99.90;;;;;;5069627;28;20249;-69
2021/05/10 04:22:35;;;;;;;6.60;3.27;;;11.90;99.90;;;;;;5069081;28;20190;-68
2021/05/10 04:25:02;;;;;;;4.70;3.30;;;11.90;99.90;;;;;;5076145;28;20199;-69
2021/05/10 04:27:28;;;;;;;3.77;2.97;;;12.00;99.90;;;;;;5071077;28;20201;-68
2021/05/10 04:29:55;;;;;;;5.47;3.30;;;11.30;99.90;;;;;;5071322;28;20719;-68
2021/05/10 04:32:23;;;;;;;4.30;3.27;;;12.00;99.90;;;;;;5070741;28;20209;-69
2021/05/10 04:34:49;;;;;;;3.07;2.70;;;12.00;99.90;;;;;;5071404;28;20728;-69
2021/05/10 04:37:16;;;;;;;3.30;3.00;;;12.10;99.90;;;;;;5069988;28;20202;-69
2021/05/10 04:39:42;;;;;;;3.70;2.70;;;12.10;99.90;;;;;;5069130;28;20264;-69
2021/05/10 04:42:09;;;;;;;2.80;2.43;;;12.20;99.90;;;;;;5070235;28;20228;-69
2021/05/10 04:44:35;;;;;;;2.63;2.40;;;12.20;99.90;;;;;;5070323;28;20232;-69
2021/05/10 04:47:02;;;;;;;3.93;2.90;;;12.30;99.90;;;;;;5066746;28;20197;-69
2021/05/10 04:49:29;;;;;;;3.27;2.87;;;12.30;99.90;;;;;;5071207;28;20662;-69
2021/05/10 04:51:56;;;;;;;4.80;2.57;;;12.30;99.90;;;;;;5072252;28;20197;-69
2021/05/10 04:54:23;;;;;;;3.67;2.80;;;12.40;99.90;;;;;;5065417;28;20270;-69
2021/05/10 04:56:49;;;;;;;4.47;2.90;;;12.40;99.90;;;;;;5067973;28;20189;-69
2021/05/10 04:59:16;;;;;;;4.10;3.03;;;12.50;99.90;;;;;;5070683;28;20193;-69
2021/05/10 05:01:43;;;;;;;4.60;3.40;;;12.50;99.90;;;;;;5068010;28;20522;-69
2021/05/10 05:04:09;;;;;;;2.93;2.47;;;12.50;99.90;;;;;;5069852;28;20207;-69
2021/05/10 05:06:37;;;;;;;3.57;2.73;;;12.60;99.90;;;;;;5068906;28;20201;-69
2021/05/10 05:09:03;;;;;;;2.23;1.93;;;12.70;99.90;;;;;;5070142;28;20660;-68
2021/05/10 05:11:30;;;;;;;3.10;2.40;;;12.80;99.90;;;;;;5072865;28;20198;-68
2021/05/10 05:13:57;;;;;;;2.53;2.20;;;12.90;99.90;;;;;;5069987;28;20225;-68
2021/05/10 05:16:23;;;;;;;2.73;2.37;;;13.00;99.90;;;;;;5068669;28;20311;-69
2021/05/10 05:18:50;;;;;;;4.53;2.50;;;13.10;99.90;;;;;;5069489;28;20269;-68
2021/05/10 05:21:16;;;;;;;2.70;2.50;;;13.20;99.90;;;;;;5069327;28;20196;-68
2021/05/10 05:23:43;;;;;;;4.23;2.37;;;13.20;99.90;;;;;;5068631;28;20716;-68
2021/05/10 05:26:10;;;;;;;2.93;2.73;;;13.40;99.90;;;;;;5076737;28;20229;-68
2021/05/10 05:28:36;;;;;;;3.33;2.60;;;13.50;99.90;;;;;;5066609;28;20282;-68
2021/05/10 05:31:04;;;;;;;3.30;2.37;;;13.60;99.90;;;;;;5067290;28;20678;-68
2021/05/10 05:33:31;;;;;;;3.13;2.87;;;13.70;99.90;;;;;;5069956;28;20204;-69
2021/05/10 05:35:57;;;;;;;2.87;2.63;;;13.80;99.90;;;;;;5067571;28;20329;-69
2021/05/10 05:38:24;;;;;;;4.33;2.90;;;14.20;99.90;;;;;;5069782;28;20331;-68
2021/05/10 05:40:51;;;;;;;3.30;2.50;;;15.00;99.90;;;;;;5069380;28;20525;-69
2021/05/10 05:43:18;;;;;;;5.10;3.50;;;15.70;99.90;;;;;;5069414;28;20235;-69
2021/05/10 05:45:44;;;;;;;3.20;2.90;;;16.30;99.90;;;;;;5060362;28;20207;-68
2021/05/10 05:48:12;;;;;;;4.63;3.30;;;16.90;99.90;;;;;;5068414;28;20201;-69
2021/05/10 05:50:39;;;;;;;3.40;3.00;;;17.70;99.90;;;;;;5071128;28;20211;-68
2021/05/10 05:53:07;;;;;;;3.27;2.70;;;18.30;99.90;;;;;;5069470;28;20279;-68
2021/05/10 05:55:33;;;;;;;3.53;2.77;;;19.60;99.00;;;;;;5066862;28;20331;-68
2021/05/10 05:58:02;;;;;;;3.43;2.93;;;20.80;95.70;;;;;;5069564;28;20196;-68
2021/05/10 06:00:29;;;;;;;3.13;2.83;;;21.90;92.60;;;;;;5100361;27;20203;-68
2021/05/10 06:02:55;;;;;;;3.10;2.77;;;22.70;90.20;;;;;;5067045;28;20318;-68
2021/05/10 06:05:22;;;;;;;3.28;2.92;;;23.30;83.70;;;;;;5059553;28;20236;-68
2021/05/10 06:07:49;;;;;;;3.25;2.67;;;24.00;79.00;;;;;;5067350;28;20559;-69
2021/05/10 06:10:18;;;;;;;3.17;2.85;;;24.80;74.00;;;;;;5067390;28;20193;-69
2021/05/10 06:12:47;;;;;;;3.70;2.58;;;25.80;70.00;;;;;;5069232;28;20246;-69
2021/05/10 06:15:15;;;;;;;3.83;2.75;;;26.70;64.70;;;;;;5065496;28;20395;-69
2021/05/10 06:17:41;;;;;;;5.15;2.90;;;27.40;60.70;;;;;;5067973;28;21300;-69
2021/05/10 06:20:09;;;;;;;4.90;3.30;;;28.10;56.80;;;;;;5067312;28;20668;-69
2021/05/10 06:22:37;;;;;;;2.80;2.60;;;28.70;54.30;;;;;;5062656;28;20715;-69
2021/05/10 06:25:04;;;;;;;2.58;2.28;;;29.30;53.50;;;;;;5062011;28;20660;-68
2021/05/10 06:27:31;;;;;;;2.95;2.30;;;30.20;52.30;;;;;;5061981;28;20224;-69
2021/05/10 06:29:57;;;;;;;6.43;2.90;;;31.00;50.40;;;;;;5062042;28;20201;-69
2021/05/10 06:32:25;;;;;;;4.25;3.03;;;31.70;48.30;;;;;;5062700;28;20197;-69
2021/05/10 06:34:51;;;;;;;2.70;2.50;;;32.20;46.80;;;;;;5061444;28;20209;-69
2021/05/10 06:37:20;;;;;;;2.88;2.67;;;32.70;45.20;;;;;;5061287;28;20722;-69
2021/05/10 06:39:46;;;;;;;4.35;3.10;;;33.00;44.10;;;;;;5064662;28;20293;-68
2021/05/10 06:42:13;;;;;;;2.92;2.60;;;33.30;43.10;;;;;;5062735;28;21352;-68
2021/05/10 06:44:40;;;;;;;3.28;2.97;;;32.80;42.30;;;;;;5061549;28;20320;-68
2021/05/10 06:47:06;;;;;;;3.17;2.60;;;32.80;41.10;;;;;;5055492;28;20363;-68
2021/05/10 06:49:34;;;;;;;3.47;2.70;;;33.30;41.30;;;;;;5060810;28;20204;-68
2021/05/10 06:52:01;;;;;;;2.90;2.67;;;33.70;41.30;;;;;;5065284;28;20197;-68
2021/05/10 06:54:27;;;;;;;2.75;2.55;;;34.20;40.00;;;;;;5078543;28;20205;-69
2021/05/10 06:56:54;;;;;;;3.50;2.90;;;34.20;39.20;;;;;;5054485;28;20280;-68
2021/05/10 06:59:20;;;;;;;4.03;2.60;;;34.40;39.70;;;;;;5058787;28;20283;-68
2021/05/10 07:01:47;;;;;;;4.43;3.08;;;34.60;38.30;;;;;;5056450;28;20585;-68
2021/05/10 07:04:14;;;;;;;3.15;2.83;;;34.50;37.60;;;;;;5064623;28;20740;-68
2021/05/10 07:06:42;;;;;;;3.20;2.92;;;34.40;37.10;;;;;;5060128;28;20561;-68
2021/05/10 07:09:10;;;;;;;3.63;2.92;;;34.30;37.10;;;;;;5058977;28;20196;-68
2021/05/10 07:11:37;;;;;;;5.57;2.97;;;34.30;36.90;;;;;;5067209;28;20276;-69
2021/05/10 07:14:04;;;;;;;2.95;2.75;;;34.50;36.40;;;;;;5066422;28;20210;-69
2021/05/10 07:16:33;;;;;;;6.18;2.78;;;34.40;35.80;;;;;;5065771;28;20258;-68
2021/05/10 07:19:00;;;;;;;4.00;3.33;;;34.20;35.60;;;;;;5064642;28;20193;-69
2021/05/10 07:21:27;;;;;;;5.88;3.13;;;34.00;35.80;;;;;;5066999;28;20193;-69
2021/05/10 07:23:54;;;;;;;3.20;2.90;;;33.70;35.70;;;;;;5065588;28;20434;-69
2021/05/10 07:26:22;;;;;;;4.57;3.05;;;33.50;35.90;;;;;;5067450;28;20625;-69
2021/05/10 07:28:50;;;;;;;2.90;2.70;;;33.20;35.90;;;;;;5066297;28;21113;-68
2021/05/10 07:31:16;;;;;;;3.40;3.03;;;32.50;36.70;;;;;;5063997;28;20909;-69
2021/05/10 07:33:43;;;;;;;3.72;2.92;;;32.20;37.00;;;;;;5068724;28;20497;-68
2021/05/10 07:36:10;;;;;;;3.20;3.00;;;31.50;37.30;;;;;;5069027;28;20264;-69
2021/05/10 07:38:37;;;;;;;2.85;2.65;;;30.60;37.80;;;;;;5062730;28;20433;-69
2021/05/10 07:41:04;;;;;;;4.13;3.20;;;29.90;39.00;;;;;;5097739;27;20571;-68
2021/05/10 07:43:30;;;;;;;4.22;3.50;;;29.30;39.30;;;;;;5065690;28;20257;-69
2021/05/10 07:45:57;;;;;;;3.55;2.90;;;28.70;39.70;;;;;;5062367;28;20711;-69
2021/05/10 07:48:24;;;;;;;3.25;2.95;;;28.10;40.40;;;;;;5059620;28;20436;-69
2021/05/10 07:50:50;;;;;;;4.43;3.55;;;27.90;40.90;;;;;;5064397;28;20197;-68
2021/05/10 07:53:17;;;;;;;3.78;3.25;;;27.50;41.20;;;;;;5064819;28;20287;-69
2021/05/10 07:55:43;;;;;;;7.18;3.00;;;27.30;41.60;;;;;;5062840;28;20462;-68
2021/05/10 07:58:11;;;;;;;3.38;3.08;;;27.30;41.90;;;;;;5067718;28;20197;-68
2021/05/10 08:00:39;;;;;;;3.08;2.80;;;27.30;41.90;;;;;;5062118;28;20801;-68
2021/05/10 08:03:07;;;;;;;3.78;3.10;;;27.40;41.80;;;;;;5066436;28;20725;-68
2021/05/10 08:05:35;;;;;;;3.13;2.83;;;27.60;41.50;;;;;;5064908;28;20219;-69
2021/05/10 08:08:01;;;;;;;3.22;2.83;;;27.80;41.30;;;;;;5068073;28;20208;-68
2021/05/10 08:10:29;;;;;;;2.75;2.55;;;28.50;41.10;;;;;;5069551;28;20780;-68
2021/05/10 08:12:55;;;;;;;5.20;3.35;;;29.70;41.00;;;;;;5066077;28;20221;-69
2021/05/10 08:15:23;;;;;;;6.57;3.17;;;31.10;38.70;;;;;;5066313;28;20584;-68
2021/05/10 08:17:50;;;;;;;5.80;3.20;;;32.30;37.30;;;;;;5066250;28;20198;-68
2021/05/10 08:20:17;;;;;;;7.00;2.72;;;33.70;36.30;;;;;;5064763;28;20201;-69
2021/05/10 08:22:45;;;;;;;4.55;3.33;;;34.80;35.30;;;;;;5097790;27;20288;-69
2021/05/10 08:25:12;;;;;;;3.75;3.42;;;35.70;33.70;;;;;;5067224;28;20185;-68
2021/05/10 08:27:39;;;;;;;4.50;3.40;;;36.40;32.90;;;;;;5068344;28;20219;-68
2021/05/10 08:30:09;;;;;;;3.60;3.03;;;37.00;31.80;;;;;;5063292;28;20329;-69
2021/05/10 08:32:37;;;;;;;3.17;2.88;;;37.60;31.40;;;;;;5065716;28;20208;-68
2021/05/10 08:35:04;;;;;;;4.18;3.25;;;38.00;30.70;;;;;;5064790;28;20289;-68
2021/05/10 08:37:30;;;;;;;3.28;3.08;;;38.40;29.60;;;;;;5065581;28;20189;-68
2021/05/10 08:39:58;;;;;;;3.47;3.20;;;39.00;30.00;;;;;;5063294;28;20280;-68
2021/05/10 08:42:25;;;;;;;3.15;2.78;;;39.60;28.40;;;;;;5066050;28;20279;-69
2021/05/10 08:44:52;;;;;;;3.28;3.08;;;40.00;28.40;;;;;;5064224;28;20248;-68
2021/05/10 08:47:20;;;;;;;4.93;3.25;;;41.00;27.90;;;;;;5062495;28;20227;-68
2021/05/10 08:49:48;;;;;;;3.63;3.00;;;41.50;26.90;;;;;;5066272;28;20692;-69
2021/05/10 08:52:16;;;;;;;3.10;2.90;;;41.80;26.30;;;;;;5060857;28;20273;-69
2021/05/10 08:54:42;;;;;;;4.35;3.22;;;42.10;26.40;;;;;;5064621;28;20215;-69
2021/05/10 08:57:09;;;;;;;5.05;3.08;;;42.60;25.40;;;;;;5065169;28;20201;-69
2021/05/10 08:59:35;;;;;;;3.67;3.38;;;42.90;25.20;;;;;;5066816;28;20680;-69
2021/05/10 09:02:03;;;;;;;3.15;2.92;;;43.00;24.90;;;;;;5059931;28;20268;-69
2021/05/10 09:04:35;;;;;;;3.40;3.10;;;43.30;24.90;;;;;;5064251;28;20270;-69
2021/05/10 09:07:13;;;;;;;2.40;2.30;;;43.70;24.70;;;;;;5065803;28;20535;-68
2021/05/10 09:09:54;;;;;;;3.33;3.03;;;44.30;24.50;;;;;;5062704;28;20212;-69
2021/05/10 09:12:23;;;;;;;3.45;3.15;;;45.00;23.60;;;;;;5065895;28;20196;-70
2021/05/10 09:14:50;;;;;;;3.10;2.97;;;45.20;22.70;;;;;;5065856;28;20227;-69
2021/05/10 09:17:18;;;;;;;3.33;3.03;;;45.40;22.20;;;;;;5064858;28;20224;-69
2021/05/10 09:19:48;;;;;;;5.65;3.28;;;45.10;21.80;;;;;;5065063;28;20204;-70
2021/05/10 09:22:17;;;;;;;3.20;2.90;;;45.00;22.10;;;;;;5062775;28;20339;-69
2021/05/10 09:24:49;;;;;;;3.05;2.85;;;45.20;22.10;;;;;;5064421;28;20434;-68
2021/05/10 09:27:27;;;;;;;3.53;2.55;;;45.40;21.90;;;;;;5060600;28;20730;-68
2021/05/10 09:30:14;;;;;;;2.78;2.58;;;45.70;21.50;;;;;;5064630;28;20200;-67
2021/05/10 09:32:46;;;;;;;2.70;2.60;;;45.40;21.60;;;;;;5063653;28;20221;-67
2021/05/10 09:35:18;;;;;;;3.95;2.90;;;45.60;21.70;;;;;;5062139;28;20193;-67
2021/05/10 09:37:52;;;;;;;2.42;2.22;;;45.80;21.20;;;;;;5062576;28;20652;-67
2021/05/10 09:40:19;;;;;;;2.78;2.58;;;45.80;21.50;;;;;;5062448;28;20203;-68
2021/05/10 09:42:53;;;;;;;2.50;2.25;;;46.00;21.20;;;;;;5064216;28;20216;-68
2021/05/10 09:45:37;;;;;;;3.92;2.80;;;46.10;20.60;;;;;;5064092;28;20311;-68
2021/05/10 09:48:05;;;;;;;2.70;2.50;;;46.40;20.80;;;;;;5058225;28;20208;-68
2021/05/10 09:50:33;;;;;;;2.67;2.25;;;46.20;20.20;;;;;;5063559;28;20205;-68
2021/05/10 09:53:02;;;;;;;2.55;2.40;;;45.80;20.10;;;;;;5065694;28;20450;-68
2021/05/10 09:55:47;;;;;;;2.55;2.35;;;45.40;20.10;;;;;;5059319;28;20442;-67
2021/05/10 09:58:15;;;;;;;2.90;2.40;;;45.10;19.80;;;;;;5063276;28;20226;-68
2021/05/10 10:00:42;;;;;;;2.60;2.50;;;45.20;19.80;;;;;;5062382;28;20453;-68
2021/05/10 10:03:25;;;;;;;2.40;2.30;;;45.30;19.90;;;;;;5066723;28;20209;-68
2021/05/10 10:05:52;;;;;;;2.58;2.38;;;45.90;19.90;;;;;;5065001;28;20319;-68
2021/05/10 10:08:20;;;;;;;2.35;2.25;;;46.70;19.70;;;;;;5061691;28;20544;-68
2021/05/10 10:10:47;;;;;;;3.47;2.63;;;47.60;19.70;;;;;;5064314;28;20327;-67
2021/05/10 10:13:15;;;;;;;4.45;2.50;;;47.70;19.20;;;;;;5096418;28;20208;-67
2021/05/10 10:15:41;;;;;;;3.13;2.35;;;47.50;18.90;;;;;;5058597;28;20461;-68
2021/05/10 10:18:10;;;;;;;4.15;2.47;;;47.20;19.00;;;;;;5063084;28;20200;-68
2021/05/10 10:20:38;;;;;;;2.35;2.15;;;47.10;19.00;;;;;;5064830;28;20660;-68
2021/05/10 10:23:07;;;;;;;8.00;2.90;;;46.50;19.10;;;;;;5061774;28;20197;-67
2021/05/10 10:25:37;;;;;;;2.60;2.40;;;45.80;19.10;;;;;;5068088;28;20307;-68
2021/05/10 10:28:05;;;;;;;2.40;2.30;;;45.70;19.30;;;;;;5066300;28;20197;-68
2021/05/10 10:30:33;;;;;;;2.47;2.35;;;45.80;19.40;;;;;;5061874;28;20635;-69
2021/05/10 10:33:02;;;;;;;3.33;2.65;;;46.00;19.40;;;;;;5065022;28;20197;-67
2021/05/10 10:35:30;;;;;;;3.22;2.90;;;46.20;19.20;;;;;;5063563;28;20562;-68
2021/05/10 10:37:58;;;;;;;2.28;2.15;;;45.90;19.30;;;;;;5064142;28;20607;-69
2021/05/10 10:40:25;;;;;;;3.08;2.47;;;45.60;19.70;;;;;;5062339;28;20568;-70
2021/05/10 10:42:53;;;;;;;2.97;2.45;;;45.50;19.80;;;;;;5062808;28;20551;-72
2021/05/10 10:45:25;;;;;;;2.30;2.20;;;45.60;20.20;;;;;;5058806;28;20636;-71
2021/05/10 10:47:54;;;;;;;2.60;2.50;;;45.70;19.80;;;;;;5059708;28;20723;-71
2021/05/10 10:50:22;;;;;;;3.40;2.22;;;45.80;19.70;;;;;;5061326;28;20204;-72
2021/05/10 10:52:50;;;;;;;2.67;2.47;;;45.60;19.60;;;;;;5059788;28;20193;-75
2021/05/10 10:55:20;;;;;;;6.80;2.58;;;45.50;19.40;;;;;;5061394;28;20204;-73
2021/05/10 10:57:47;;;;;;;4.90;2.35;;;45.10;19.80;;;;;;5040502;28;20205;-78
2021/05/10 11:00:17;;;;;;;3.15;2.20;;;44.90;19.70;;;;;;5059167;28;20422;-78
2021/05/10 11:02:46;;;;;;;2.63;2.42;;;44.80;20.10;;;;;;5062048;28;20192;-78
2021/05/10 11:05:14;;;;;;;3.58;2.30;;;44.60;20.20;;;;;;5065016;28;20185;-79
2021/05/10 11:07:53;;;;;;;2.15;2.05;;;44.20;20.00;;;;;;5061730;28;20332;-79
2021/05/10 11:10:47;;;;;;;2.40;2.20;;;43.40;20.20;;;;;;5064814;28;20195;-81
2021/05/10 11:13:33;;;;;;;2.00;1.90;;;42.70;20.50;;;;;;5063321;28;20208;-76
2021/05/10 11:16:02;;;;;;;2.28;2.08;;;42.50;20.80;;;;;;5061008;28;20185;-75
2021/05/10 11:18:44;;;;;;;1.98;1.88;;;42.20;20.90;;;;;;5064144;28;20284;-77
2021/05/10 11:21:39;;;;;;;3.83;2.22;;;41.90;21.20;;;;;;5062188;28;20258;-76
2021/05/10 11:24:13;;;;;;;3.58;2.45;;;41.70;21.20;;;;;;5061917;28;20193;-74
2021/05/10 11:26:43;;;;;;;2.00;1.90;;;41.50;21.30;;;;;;5061255;28;20220;-74
2021/05/10 11:29:11;;;;;;;2.47;2.38;;;41.30;21.50;;;;;;5061747;28;20675;-74
2021/05/10 11:31:43;;;;;;;2.50;2.17;;;41.00;21.80;;;;;;5063802;28;20284;-74
2021/05/10 11:34:23;;;;;;;2.97;2.50;;;40.70;21.70;;;;;;5061182;28;20200;-74
2021/05/10 11:36:51;;;;;;;2.40;2.30;;;40.40;22.00;;;;;;5062430;28;20692;-74
2021/05/10 11:39:25;;;;;;;2.30;2.15;;;40.10;22.10;;;;;;5069883;28;20775;-74
2021/05/10 11:41:57;;;;;;;2.30;2.20;;;39.70;22.30;;;;;;5061346;28;20207;-73
2021/05/10 11:44:26;;;;;;;2.20;2.10;;;39.30;22.40;;;;;;5063601;28;20797;-73
2021/05/10 11:46:55;;;;;;;2.67;2.15;;;39.10;22.70;;;;;;5060485;28;20225;-73
2021/05/10 11:49:27;;;;;;;2.30;2.10;;;38.90;22.90;;;;;;5069414;28;20533;-72
2021/05/10 11:51:56;;;;;;;2.25;2.15;;;38.60;23.00;;;;;;5065976;28;20279;-73
2021/05/10 11:54:23;;;;;;;3.25;2.20;;;38.30;23.10;;;;;;5067446;28;20611;-73
2021/05/10 11:56:51;;;;;;;8.43;2.42;;;38.00;23.40;;;;;;5065800;28;20189;-72
2021/05/10 12:02:13;;;;;;;1.90;1.80;;;37.80;23.70;;;;;;5064432;28;20193;-71
2021/05/10 12:04:41;;;;;;;2.22;2.00;;;37.60;24.00;;;;;;5066726;28;20208;-72
2021/05/10 12:07:08;;;;;;;2.22;2.00;;;37.40;24.20;;;;;;5063343;28;21199;-73
2021/05/10 12:09:53;;;;;;;2.00;1.90;;;37.20;24.30;;;;;;5066774;28;20740;-72
2021/05/10 12:12:39;;;;;;;2.60;2.00;;;37.10;24.50;;;;;;5066348;28;21004;-71
2021/05/10 12:15:14;;;;;;;1.90;1.80;;;37.10;24.60;;;;;;5079513;28;20454;-70
2021/05/10 12:17:44;;;;;;;1.88;1.83;;;36.80;24.90;;;;;;5061466;28;20188;-70
2021/05/10 12:20:13;;;;;;;1.83;1.73;;;36.10;25.20;;;;;;5059067;28;20519;-70
2021/05/10 12:22:41;;;;;;;5.22;1.80;;;35.40;25.60;;;;;;5064185;28;20276;-70
2021/05/10 12:25:11;;;;;;;2.78;1.80;;;34.90;26.10;;;;;;5063553;28;20189;-70
2021/05/10 12:27:44;;;;;;;2.63;1.70;;;34.30;26.40;;;;;;5065313;28;20283;-70
2021/05/10 12:30:17;;;;;;;1.58;1.48;;;33.70;26.80;;;;;;5065922;28;20253;-70
2021/05/10 12:32:47;;;;;;;2.88;1.60;;;33.20;27.20;;;;;;5063150;28;20196;-70
2021/05/10 12:35:16;;;;;;;1.40;1.40;;;32.70;27.60;;;;;;5064828;28;20524;-69
2021/05/10 12:37:44;;;;;;;1.17;1.17;;;32.50;27.80;;;;;;5098680;27;20484;-68
2021/05/10 12:40:13;;;;;;;1.60;1.50;;;32.00;28.00;;;;;;5065315;28;20201;-68
2021/05/10 12:42:41;;;;;;;1.55;1.40;;;31.70;28.30;;;;;;5068765;28;20220;-69
2021/05/10 12:45:10;;;;;;;1.48;1.38;;;31.30;28.70;;;;;;5059160;28;20228;-69
2021/05/10 12:47:38;;;;;;;2.88;1.90;;;30.90;29.10;;;;;;5062095;28;20751;-68
2021/05/10 12:50:06;;;;;;;1.60;1.50;;;30.70;29.40;;;;;;5063237;28;20877;-67
2021/05/10 12:52:46;;;;;;;2.78;1.75;;;30.40;29.60;;;;;;5058155;28;20233;-67
2021/05/10 12:55:20;;;;;;;1.88;1.48;;;30.20;29.90;;;;;;5064656;28;20193;-67
2021/05/10 12:57:48;;;;;;;1.30;1.30;;;30.00;30.30;;;;;;5064835;28;20197;-69
2021/05/10 13:00:38;;;;;;;2.22;1.40;;;29.90;31.10;;;;;;5061970;28;20672;-67